createdAt,value
2018-05-26T00:01:39.683Z,3.10
2018-05-26T00:06:41.116Z,2.70
2018-05-26T00:11:42.434Z,2.97
2018-05-26T00:16:43.837Z,2.90
2018-05-26T00:21:45.898Z,2.40
2018-05-26T00:26:47.207Z,2.90
2018-05-26T00:31:48.505Z,2.60
2018-05-26T00:36:49.826Z,2.47
2018-05-26T00:41:51.905Z,2.70
2018-05-26T00:46:53.215Z,2.30
2018-05-26T00:51:55.291Z,2.80
2018-05-26T00:56:56.597Z,4.00
2018-05-26T01:01:58.148Z,4.03
2018-05-26T01:07:00.373Z,4.57
2018-05-26T01:12:01.888Z,3.93
2018-05-26T01:17:06.353Z,3.17
2018-05-26T01:22:08.890Z,2.90
2018-05-26T01:27:10.987Z,2.93
2018-05-26T01:32:13.040Z,2.70
2018-05-26T01:37:14.360Z,2.60
2018-05-26T01:42:15.672Z,3.67
2018-05-26T01:47:17.721Z,3.30
2018-05-26T01:52:19.022Z,2.83
2018-05-26T01:57:20.325Z,2.60
2018-05-26T02:02:21.635Z,2.30
2018-05-26T02:07:22.938Z,2.87
2018-05-26T02:12:25.512Z,3.00
2018-05-26T02:17:27.610Z,3.10
2018-05-26T02:22:28.921Z,2.77
2018-05-26T02:27:30.217Z,2.80
2018-05-26T02:32:31.961Z,2.67
2018-05-26T02:37:33.301Z,2.67
2018-05-26T02:42:34.629Z,2.40
2018-05-26T02:47:35.994Z,2.57
2018-05-26T02:52:37.329Z,2.90
2018-05-26T02:57:38.701Z,2.87
2018-05-26T03:02:40.751Z,3.07
2018-05-26T03:07:48.266Z,3.43
2018-05-26T03:12:55.873Z,2.93
2018-05-26T03:17:58.770Z,2.73
2018-05-26T03:23:07.097Z,2.70
2018-05-26T03:28:08.421Z,2.80
2018-05-26T03:33:09.726Z,3.23
2018-05-26T03:38:11.761Z,2.97
2018-05-26T03:43:13.065Z,3.10
2018-05-26T03:48:14.369Z,2.97
2018-05-26T03:53:15.709Z,3.10
2018-05-26T03:58:36.309Z,4.00
2018-05-26T04:03:37.634Z,3.70
2018-05-26T04:08:39.713Z,3.27
2018-05-26T04:13:41.018Z,3.00
2018-05-26T04:18:43.067Z,3.37
2018-05-26T04:23:45.182Z,3.23
2018-05-26T04:28:46.501Z,3.20
2018-05-26T04:33:47.914Z,3.40
2018-05-26T04:38:49.226Z,3.33
2018-05-26T04:43:50.539Z,3.10
2018-05-26T04:48:51.845Z,3.43
2018-05-26T04:53:53.222Z,4.07
2018-05-26T04:58:54.551Z,3.80
2018-05-26T05:03:55.922Z,4.13
2018-05-26T05:08:57.282Z,4.10
2018-05-26T05:13:58.609Z,3.80
2018-05-26T05:18:59.952Z,3.87
2018-05-26T05:24:05.206Z,3.80
2018-05-26T05:29:06.617Z,3.73
2018-05-26T05:34:08.013Z,3.30
2018-05-26T05:39:09.691Z,3.40
2018-05-26T05:44:11.066Z,4.00
2018-05-26T05:49:12.392Z,3.80
2018-05-26T05:54:13.695Z,3.60
2018-05-26T05:59:14.998Z,3.57
2018-05-26T06:04:16.341Z,4.00
2018-05-26T06:09:18.373Z,4.43
2018-05-26T06:14:19.682Z,4.00
2018-05-26T06:19:20.999Z,4.07
2018-05-26T06:24:22.467Z,4.03
2018-05-26T06:29:23.797Z,4.17
2018-05-26T06:34:26.094Z,3.70
2018-05-26T06:39:27.402Z,4.07
2018-05-26T06:44:29.478Z,3.80
2018-05-26T06:49:30.807Z,4.23
2018-05-26T06:54:32.884Z,3.87
2018-05-26T06:59:34.695Z,4.30
2018-05-26T07:04:36.042Z,3.77
2018-05-26T07:09:37.401Z,3.67
2018-05-26T07:14:38.693Z,4.00
2018-05-26T07:19:40.010Z,4.10
2018-05-26T07:24:41.330Z,4.33
2018-05-26T07:29:42.679Z,4.30
2018-05-26T07:34:44.030Z,4.60
2018-05-26T07:39:46.104Z,4.20
2018-05-26T07:44:47.408Z,4.20
2018-05-26T07:49:48.763Z,4.60
2018-05-26T07:54:50.100Z,4.73
2018-05-26T07:59:52.182Z,4.40
2018-05-26T08:04:53.859Z,4.30
2018-05-26T08:09:55.287Z,4.33
2018-05-26T08:14:56.593Z,4.20
2018-05-26T08:19:58.681Z,4.17
2018-05-26T08:25:00.144Z,4.57
2018-05-26T08:30:01.624Z,5.80
2018-05-26T08:35:02.974Z,5.20
2018-05-26T08:40:05.059Z,4.53
2018-05-26T08:45:06.429Z,4.73
2018-05-26T08:50:07.738Z,4.00
2018-05-26T08:55:09.078Z,4.30
2018-05-26T09:00:10.385Z,4.20
2018-05-26T09:05:11.686Z,4.53
2018-05-26T09:10:13.007Z,4.43
2018-05-26T09:15:15.086Z,4.30
2018-05-26T09:20:16.562Z,4.53
2018-05-26T09:25:17.975Z,4.37
2018-05-26T09:30:19.382Z,4.40
2018-05-26T09:35:20.674Z,4.40
2018-05-26T09:40:22.072Z,4.43
2018-05-26T09:45:23.426Z,4.37
2018-05-26T09:50:24.740Z,4.50
2018-05-26T09:55:26.062Z,4.63
2018-05-26T10:00:28.128Z,4.30
2018-05-26T10:05:29.486Z,4.47
2018-05-26T10:10:30.838Z,4.00
2018-05-26T10:15:32.881Z,4.20
2018-05-26T10:20:35.300Z,4.47
2018-05-26T10:25:36.609Z,4.73
2018-05-26T10:30:38.011Z,5.33
2018-05-26T10:35:39.406Z,4.50
2018-05-26T10:40:40.725Z,3.90
2018-05-26T10:45:42.049Z,4.73
2018-05-26T10:50:43.445Z,3.80
2018-05-26T10:55:44.762Z,4.03
2018-05-26T11:00:46.073Z,4.17
2018-05-26T11:05:48.100Z,3.77
2018-05-26T11:10:49.458Z,4.00
2018-05-26T11:15:51.581Z,3.97
2018-05-26T11:20:56.387Z,4.20
2018-05-26T11:25:58.175Z,4.10
2018-05-26T11:31:04.451Z,3.97
2018-05-26T11:36:06.190Z,3.90
2018-05-26T11:41:07.501Z,4.50
2018-05-26T11:46:08.793Z,4.83
2018-05-26T11:51:10.091Z,3.87
2018-05-26T11:56:11.390Z,3.80
2018-05-26T12:01:12.726Z,4.10
2018-05-26T12:06:14.087Z,4.20
2018-05-26T12:11:16.205Z,3.87
2018-05-26T12:16:17.509Z,3.97
2018-05-26T12:21:18.812Z,4.20
2018-05-26T12:26:20.136Z,4.03
2018-05-26T12:31:21.442Z,3.80
2018-05-26T12:36:23.495Z,4.00
2018-05-26T12:41:24.801Z,4.60
2018-05-26T12:46:26.121Z,4.03
2018-05-26T12:51:28.185Z,3.80
2018-05-26T12:56:29.524Z,4.20
2018-05-26T13:01:31.621Z,3.87
2018-05-26T13:06:32.953Z,4.00
2018-05-26T13:11:34.277Z,4.13
2018-05-26T13:16:35.622Z,4.63
2018-05-26T13:21:36.956Z,4.20
2018-05-26T13:26:38.285Z,3.43
2018-05-26T13:31:40.358Z,3.90
2018-05-26T13:36:41.685Z,3.63
2018-05-26T13:41:43.769Z,4.17
2018-05-26T13:46:45.877Z,4.30
2018-05-26T13:51:47.289Z,3.50
2018-05-26T13:56:48.627Z,3.67
2018-05-26T14:01:49.972Z,4.27
2018-05-26T14:06:51.289Z,3.90
2018-05-26T14:11:52.631Z,3.73
2018-05-26T14:16:53.985Z,3.90
2018-05-26T14:21:55.336Z,3.80
2018-05-26T14:26:56.654Z,3.23
2018-05-26T14:31:57.966Z,4.00
2018-05-26T14:36:59.382Z,3.90
2018-05-26T14:42:01.449Z,4.43
2018-05-26T14:47:02.793Z,4.00
2018-05-26T14:52:04.117Z,3.37
2018-05-26T14:57:05.440Z,3.80
2018-05-26T15:02:06.749Z,3.87
2018-05-26T15:07:08.067Z,4.23
2018-05-26T15:12:09.398Z,3.83
2018-05-26T15:17:10.711Z,3.73
2018-05-26T15:22:12.761Z,3.77
2018-05-26T15:27:14.087Z,3.80
2018-05-26T15:32:15.450Z,3.93
2018-05-26T15:37:16.821Z,3.83
2018-05-26T15:42:18.142Z,3.90
2018-05-26T15:47:19.480Z,4.67
2018-05-26T15:52:20.838Z,4.20
2018-05-26T15:57:22.938Z,3.87
2018-05-26T16:02:24.253Z,3.60
2018-05-26T16:07:26.310Z,3.60
2018-05-26T16:12:28.366Z,3.70
2018-05-26T16:17:29.777Z,3.60
2018-05-26T16:22:32.240Z,3.60
2018-05-26T16:27:33.567Z,3.90
2018-05-26T16:32:35.659Z,4.13
2018-05-26T16:37:37.736Z,3.23
2018-05-26T16:42:39.410Z,3.97
2018-05-26T16:47:40.721Z,3.50
2018-05-26T16:52:42.051Z,3.63
2018-05-26T16:57:44.130Z,3.50
2018-05-26T17:02:45.479Z,3.50
2018-05-26T17:07:46.852Z,3.80
2018-05-26T17:12:48.166Z,3.80
2018-05-26T17:17:49.518Z,3.60
2018-05-26T17:22:51.593Z,4.20
2018-05-26T17:27:52.938Z,3.73
2018-05-26T17:32:54.245Z,3.97
2018-05-26T17:37:55.561Z,4.20
2018-05-26T17:42:56.873Z,5.40
2018-05-26T17:47:58.906Z,4.70
2018-05-26T17:53:00.265Z,3.87
2018-05-26T17:58:02.833Z,4.27
2018-05-26T18:03:04.980Z,5.27
2018-05-26T18:08:06.332Z,3.97
2018-05-26T18:13:07.711Z,3.87
2018-05-26T18:18:09.283Z,3.90
2018-05-26T18:23:11.334Z,3.60
2018-05-26T18:28:12.621Z,4.77
2018-05-26T18:33:13.929Z,4.07
2018-05-26T18:38:15.281Z,4.00
2018-05-26T18:43:16.616Z,4.17
2018-05-26T18:48:17.943Z,4.10
2018-05-26T18:53:20.039Z,6.63
2018-05-26T18:58:22.149Z,5.87
2018-05-26T19:03:24.206Z,3.20
2018-05-26T19:08:25.525Z,3.83
2018-05-26T19:13:26.877Z,4.10
2018-05-26T19:18:28.194Z,3.80
2018-05-26T19:23:29.497Z,3.40
2018-05-26T19:28:30.846Z,3.80
2018-05-26T19:33:32.169Z,3.60
2018-05-26T19:38:33.471Z,3.50
2018-05-26T19:43:35.515Z,3.77
2018-05-26T19:48:36.829Z,3.60
2018-05-26T19:53:38.130Z,3.30
2018-05-26T19:58:39.462Z,3.50
2018-05-26T20:03:41.513Z,3.20
2018-05-26T20:08:42.853Z,2.80
2018-05-26T20:13:44.938Z,3.23
2018-05-26T20:18:46.301Z,3.37
2018-05-26T20:23:47.637Z,2.70
2018-05-26T20:28:49.717Z,2.93
2018-05-26T20:33:51.054Z,2.77
2018-05-26T20:38:52.367Z,2.97
2018-05-26T20:43:53.700Z,3.20
2018-05-26T20:48:55.757Z,3.23
2018-05-26T20:53:57.095Z,2.90
2018-05-26T20:58:59.229Z,2.90
2018-05-26T21:04:00.564Z,2.60
2018-05-26T21:09:01.925Z,3.30
2018-05-26T21:14:03.276Z,2.83
2018-05-26T21:19:05.505Z,3.10
2018-05-26T21:24:06.813Z,2.23
2018-05-26T21:29:08.098Z,2.37
2018-05-26T21:34:09.422Z,2.50
2018-05-26T21:39:10.733Z,2.43
2018-05-26T21:44:12.054Z,2.30
2018-05-26T21:49:13.374Z,2.33
2018-05-26T21:54:14.719Z,2.13
2018-05-26T21:59:16.786Z,2.10
2018-05-26T22:04:18.110Z,2.20
2018-05-26T22:09:20.198Z,2.43
2018-05-26T22:14:21.497Z,2.30
2018-05-26T22:19:23.539Z,2.67
2018-05-26T22:24:24.842Z,3.10
2018-05-26T22:29:26.153Z,2.17
2018-05-26T22:34:27.441Z,2.50
2018-05-26T22:39:28.729Z,2.30
2018-05-26T22:44:30.038Z,2.60
2018-05-26T22:49:31.350Z,2.37
2018-05-26T22:54:33.413Z,2.30
2018-05-26T22:59:34.750Z,2.40
2018-05-26T23:04:36.063Z,2.63
2018-05-26T23:09:37.413Z,3.10
2018-05-26T23:14:39.465Z,2.67
2018-05-26T23:19:40.791Z,2.43
2018-05-26T23:24:42.102Z,2.93
2018-05-26T23:29:44.161Z,2.90
2018-05-26T23:34:45.593Z,2.80
2018-05-26T23:39:47.657Z,2.60
2018-05-26T23:44:48.985Z,2.90
2018-05-26T23:49:50.357Z,3.10
2018-05-26T23:54:51.772Z,2.80
2018-05-26T23:59:53.136Z,2.87
